Terminal Aerodrome Forecast
Issued by NWS

Home | Current Version | Previous Version | Text Only | Print | Product List | Glossary On
Versions: 1 2 3 4 5 6 7 8 9 10 11 12 13 14 15 16 17 18 19 20 21 22 23 24 25 26 27 28 29 30 31 32 33 34 35 36 37 38 39 40 41 42 43
000
FTAK31 PAFA 161738
TAFASC
TAF
PASC 161738Z 1618/1718 29006KT 1/4SM FG VV003
      TEMPO 1618/1619 1SM BR
     FM162000 29005KT 3SM -DZ BR OVC003
     FM170400 30005KT 2SM BR OVC002
     FM171500 26004KT 1/2SM FG VV002=

USA.gov is the U.S. government's official web portal to all federal, state and local government web resources and services.